createdAt,value
2018-07-21T00:00:51.276Z,78.60
2018-07-21T00:03:23.005Z,78.60
2018-07-21T00:05:51.020Z,78.20
2018-07-21T00:08:18.978Z,78.10
2018-07-21T00:10:46.948Z,78.10
2018-07-21T00:13:15.800Z,78.20
2018-07-21T00:18:13.322Z,78.00
2018-07-21T00:20:42.534Z,89.50
2018-07-21T00:23:12.148Z,78.40
2018-07-21T00:28:10.675Z,78.30
2018-07-21T00:30:38.635Z,78.60
2018-07-21T00:35:35.243Z,78.00
2018-07-21T00:38:04.036Z,78.40
2018-07-21T00:40:32.633Z,78.50
2018-07-21T00:45:29.330Z,78.70
2018-07-21T00:47:58.042Z,78.90
2018-07-21T00:50:26.175Z,79.10
2018-07-21T00:57:59.016Z,80.00
2018-07-21T01:00:27.024Z,79.20
2018-07-21T01:02:54.972Z,80.10
2018-07-21T01:05:22.890Z,80.30
2018-07-21T01:10:18.793Z,81.70
2018-07-21T01:12:46.706Z,81.40
2018-07-21T01:15:14.646Z,81.40
2018-07-21T01:17:42.572Z,81.50
2018-07-21T01:20:10.501Z,81.80
2018-07-21T01:22:38.465Z,82.20
2018-07-21T01:27:34.498Z,83.30
2018-07-21T01:32:30.343Z,83.80
2018-07-21T01:39:54.178Z,83.40
2018-07-21T01:42:22.207Z,83.90
2018-07-21T01:47:18.128Z,84.20
2018-07-21T01:49:46.064Z,84.30
2018-07-21T01:52:14.021Z,84.60
2018-07-21T01:54:43.423Z,84.80
2018-07-21T01:57:12.853Z,86.00
2018-07-21T02:02:09.468Z,85.70
2018-07-21T02:04:37.431Z,86.50
2018-07-21T02:07:05.522Z,87.10
2018-07-21T02:09:33.492Z,86.80
2018-07-21T02:12:01.455Z,87.50
2018-07-21T02:14:29.378Z,87.30
2018-07-21T02:19:25.241Z,87.00
2018-07-21T02:21:53.204Z,87.90
2018-07-21T02:24:21.170Z,88.60
2018-07-21T02:26:49.139Z,88.30
2018-07-21T02:29:17.108Z,87.60
2018-07-21T02:31:45.030Z,87.20
2018-07-21T02:34:13.035Z,88.30
2018-07-21T02:36:40.966Z,87.60
2018-07-21T02:39:10.520Z,88.00
2018-07-21T02:41:38.549Z,88.40
2018-07-21T02:44:06.504Z,88.60
2018-07-21T02:46:34.474Z,88.20
2018-07-21T02:49:02.420Z,94.70
2018-07-21T02:51:30.369Z,94.70
2018-07-21T02:53:58.373Z,94.90
2018-07-21T02:56:26.286Z,88.80
2018-07-21T02:58:54.237Z,88.50
2018-07-21T03:03:50.107Z,88.70
2018-07-21T03:06:18.051Z,88.90
2018-07-21T03:08:46.021Z,89.20
2018-07-21T03:11:13.980Z,88.80
2018-07-21T03:18:37.804Z,90.10
2018-07-21T03:21:05.745Z,90.30
2018-07-21T03:26:01.841Z,90.00
2018-07-21T03:28:29.825Z,90.20
2018-07-21T03:30:57.837Z,95.70
2018-07-21T03:33:25.711Z,90.40
2018-07-21T03:35:53.649Z,90.30
2018-07-21T03:40:49.525Z,90.70
2018-07-21T03:43:17.454Z,90.70
2018-07-21T03:45:45.564Z,90.70
2018-07-21T03:48:13.497Z,91.00
2018-07-21T03:55:37.321Z,91.70
2018-07-21T03:58:05.359Z,92.00
2018-07-21T04:03:01.224Z,91.70
2018-07-21T04:05:29.191Z,91.80
2018-07-21T04:07:57.109Z,92.10
2018-07-21T04:10:25.104Z,92.00
2018-07-21T04:12:53.094Z,98.00
2018-07-21T04:15:21.028Z,92.60
2018-07-21T04:17:48.972Z,92.10
2018-07-21T04:20:16.916Z,92.10
2018-07-21T04:22:44.913Z,91.80
2018-07-21T04:25:12.913Z,92.50
2018-07-21T04:30:08.787Z,92.50
2018-07-21T04:32:36.722Z,92.40
2018-07-21T04:35:04.794Z,92.40
2018-07-21T04:37:32.719Z,92.40
2018-07-21T04:40:00.677Z,92.30
2018-07-21T04:42:28.637Z,92.50
2018-07-21T04:44:56.624Z,92.70
2018-07-21T04:47:24.623Z,92.50
2018-07-21T04:49:52.563Z,97.80
2018-07-21T04:52:20.493Z,92.60
2018-07-21T04:54:48.467Z,97.90
2018-07-21T04:57:16.398Z,93.50
2018-07-21T05:02:12.349Z,92.60
2018-07-21T05:04:40.284Z,92.80
2018-07-21T05:07:08.249Z,92.70
2018-07-21T05:09:36.195Z,92.80
2018-07-21T05:12:04.174Z,92.90
2018-07-21T05:14:32.155Z,97.90
2018-07-21T05:17:00.119Z,93.10
2018-07-21T05:21:56.065Z,93.30
2018-07-21T05:26:51.937Z,93.70
2018-07-21T05:29:19.867Z,94.30
2018-07-21T05:34:15.792Z,94.30
2018-07-21T05:39:11.826Z,94.60
2018-07-21T05:41:40.485Z,94.60
2018-07-21T05:44:08.415Z,94.30
2018-07-21T05:46:36.537Z,94.30
2018-07-21T05:49:04.497Z,94.60
2018-07-21T05:51:32.493Z,99.60
2018-07-21T05:54:00.427Z,99.90
2018-07-21T05:56:28.423Z,99.70
2018-07-21T05:58:56.514Z,99.70
2018-07-21T06:03:52.417Z,94.40
2018-07-21T06:06:20.371Z,94.00
2018-07-21T06:08:48.332Z,98.90
2018-07-21T06:11:16.285Z,93.90
2018-07-21T06:13:44.232Z,94.00
2018-07-21T06:16:12.219Z,93.70
2018-07-21T06:18:40.185Z,93.30
2018-07-21T06:26:04.150Z,92.20
2018-07-21T06:28:32.117Z,93.10
2018-07-21T06:33:28.046Z,90.60
2018-07-21T06:35:56.000Z,90.90
2018-07-21T06:38:24.002Z,90.80
2018-07-21T06:43:19.849Z,89.60
2018-07-21T06:45:47.804Z,87.10
2018-07-21T06:50:43.694Z,85.90
2018-07-21T06:53:11.622Z,85.30
2018-07-21T06:55:39.551Z,84.40
2018-07-21T06:58:07.556Z,83.90
2018-07-21T07:00:35.487Z,83.30
2018-07-21T07:03:03.469Z,83.00
2018-07-21T07:07:59.343Z,83.30
2018-07-21T07:10:27.279Z,82.60
2018-07-21T07:15:23.148Z,82.40
2018-07-21T07:17:51.080Z,83.10
2018-07-21T07:22:46.955Z,82.70
2018-07-21T07:25:14.881Z,82.70
2018-07-21T07:30:10.769Z,82.30
2018-07-21T07:32:56.595Z,82.60
2018-07-21T07:35:25.047Z,91.10
2018-07-21T07:38:17.442Z,92.10
2018-07-21T07:43:14.647Z,81.60
2018-07-21T07:45:42.628Z,82.80
2018-07-21T07:48:10.625Z,83.40
2018-07-21T07:50:38.550Z,83.90
2018-07-21T07:53:06.518Z,83.60
2018-07-21T07:55:34.440Z,83.20
2018-07-21T07:58:03.527Z,83.60
2018-07-21T08:03:00.766Z,83.90
2018-07-21T08:05:28.846Z,83.80
2018-07-21T08:12:53.029Z,83.50
2018-07-21T08:15:21.704Z,83.50
2018-07-21T08:17:50.013Z,83.50
2018-07-21T08:20:18.024Z,83.40
2018-07-21T08:22:46.064Z,84.00
2018-07-21T08:30:11.100Z,83.30
2018-07-21T08:32:39.742Z,82.90
2018-07-21T08:35:07.708Z,83.00
2018-07-21T08:37:36.637Z,82.70
2018-07-21T08:42:33.037Z,80.70
2018-07-21T08:45:01.126Z,80.30
2018-07-21T08:47:29.087Z,80.00
2018-07-21T08:49:57.146Z,90.10
2018-07-21T08:52:25.088Z,80.10
2018-07-21T08:54:53.026Z,79.90
2018-07-21T08:57:20.966Z,80.10
2018-07-21T08:59:48.962Z,80.80
2018-07-21T09:07:12.892Z,81.10
2018-07-21T09:09:40.820Z,91.30
2018-07-21T09:12:08.765Z,81.10
2018-07-21T09:14:36.745Z,80.80
2018-07-21T09:17:04.754Z,90.90
2018-07-21T09:19:32.728Z,90.70
2018-07-21T09:22:00.646Z,80.30
2018-07-21T09:24:28.647Z,79.20
2018-07-21T09:29:24.576Z,80.00
2018-07-21T09:34:20.509Z,80.40
2018-07-21T09:39:16.361Z,78.50
2018-07-21T09:41:44.320Z,77.60
2018-07-21T09:46:40.266Z,77.20
2018-07-21T09:49:08.230Z,77.70
2018-07-21T09:51:36.104Z,76.60
2018-07-21T09:54:04.074Z,76.20
2018-07-21T09:56:31.993Z,75.80
2018-07-21T09:58:59.988Z,75.40
2018-07-21T10:03:55.877Z,75.60
2018-07-21T10:06:23.805Z,74.60
2018-07-21T10:13:47.647Z,73.00
2018-07-21T10:16:15.693Z,84.10
2018-07-21T10:18:43.609Z,73.30
2018-07-21T10:21:11.572Z,73.00
2018-07-21T10:23:39.592Z,73.00
2018-07-21T10:26:25.544Z,72.00
2018-07-21T10:29:05.707Z,71.90
2018-07-21T10:34:01.973Z,72.70
2018-07-21T10:38:57.852Z,72.10
2018-07-21T10:41:25.791Z,71.40
2018-07-21T10:43:53.717Z,70.00
2018-07-21T10:48:49.642Z,69.40
2018-07-21T10:53:45.529Z,68.90
2018-07-21T10:56:13.539Z,69.60
2018-07-21T10:58:41.500Z,69.50
2018-07-21T11:01:09.485Z,69.70
2018-07-21T11:03:37.471Z,69.60
2018-07-21T11:08:33.380Z,69.50
2018-07-21T11:11:01.352Z,69.10
2018-07-21T11:13:30.386Z,69.10
2018-07-21T11:15:58.362Z,68.30
2018-07-21T11:18:26.301Z,77.70
2018-07-21T11:23:22.196Z,66.00
2018-07-21T11:25:50.100Z,66.70
2018-07-21T11:33:13.956Z,67.30
2018-07-21T11:35:42.117Z,67.60
2018-07-21T11:38:09.891Z,68.10
2018-07-21T11:40:37.829Z,68.50
2018-07-21T11:43:06.043Z,68.30
2018-07-21T11:45:34.005Z,67.30
2018-07-21T11:48:02.080Z,67.60
2018-07-21T11:50:30.226Z,67.90
2018-07-21T11:52:58.153Z,78.60
2018-07-21T11:57:54.268Z,67.80
2018-07-21T12:00:22.215Z,76.30
2018-07-21T12:02:50.166Z,76.90
2018-07-21T12:05:18.146Z,67.60
2018-07-21T12:07:46.151Z,68.30
2018-07-21T12:12:42.065Z,66.40
2018-07-21T12:15:10.055Z,65.20
2018-07-21T12:17:37.979Z,75.30
2018-07-21T12:20:05.937Z,66.00
2018-07-21T12:22:33.866Z,66.20
2018-07-21T12:27:29.767Z,66.00
2018-07-21T12:29:57.657Z,66.00
2018-07-21T12:32:25.618Z,66.00
2018-07-21T12:34:53.547Z,66.90
2018-07-21T12:37:21.500Z,76.60
2018-07-21T12:39:49.452Z,68.50
2018-07-21T12:47:13.482Z,67.80
2018-07-21T12:49:41.365Z,79.50
2018-07-21T12:52:09.302Z,70.20
2018-07-21T12:54:37.373Z,69.10
2018-07-21T12:57:05.553Z,68.60
2018-07-21T12:59:33.500Z,68.20
2018-07-21T13:04:29.392Z,67.30
2018-07-21T13:06:57.335Z,76.00
2018-07-21T13:09:25.287Z,66.60
2018-07-21T13:11:53.219Z,66.60
2018-07-21T13:14:21.212Z,66.60
2018-07-21T13:21:45.058Z,65.10
2018-07-21T13:24:12.984Z,63.70
2018-07-21T13:29:08.976Z,62.10
2018-07-21T13:31:36.960Z,71.30
2018-07-21T13:34:04.871Z,62.70
2018-07-21T13:36:32.836Z,63.40
2018-07-21T13:39:00.795Z,60.40
2018-07-21T13:41:28.720Z,60.70
2018-07-21T13:43:56.698Z,59.40
2018-07-21T13:46:24.628Z,60.40
2018-07-21T13:48:52.599Z,59.50
2018-07-21T13:51:20.512Z,60.10
2018-07-21T13:56:16.376Z,59.90
2018-07-21T13:58:44.301Z,60.40
2018-07-21T14:01:12.318Z,59.60
2018-07-21T14:03:40.264Z,60.10
2018-07-21T14:08:36.162Z,61.50
2018-07-21T14:11:04.127Z,61.10
2018-07-21T14:13:32.091Z,70.50
2018-07-21T14:16:00.113Z,61.40
2018-07-21T14:18:27.913Z,61.50
2018-07-21T14:20:55.886Z,61.50
2018-07-21T14:23:23.821Z,61.70
2018-07-21T14:25:51.786Z,62.30
2018-07-21T14:28:19.710Z,62.70
2018-07-21T14:30:47.656Z,63.80
2018-07-21T14:33:15.598Z,63.80
2018-07-21T14:35:43.580Z,63.20
2018-07-21T14:40:39.441Z,62.00
2018-07-21T14:43:07.394Z,63.30
2018-07-21T14:45:35.368Z,73.20
2018-07-21T14:48:03.340Z,73.20
2018-07-21T14:50:31.378Z,73.20
2018-07-21T14:52:59.326Z,62.80
2018-07-21T14:55:27.381Z,63.50
2018-07-21T14:57:55.215Z,64.00
2018-07-21T15:00:23.273Z,72.40
2018-07-21T15:02:51.233Z,61.50
2018-07-21T15:05:19.212Z,62.00
2018-07-21T15:07:47.154Z,63.70
2018-07-21T15:10:15.129Z,63.50
2018-07-21T15:12:43.084Z,63.00
2018-07-21T15:15:11.040Z,62.40
2018-07-21T15:17:38.959Z,61.90
2018-07-21T15:20:07.261Z,61.70
2018-07-21T15:25:03.185Z,63.20
2018-07-21T15:27:31.145Z,75.20
2018-07-21T15:29:59.077Z,63.90
2018-07-21T15:32:27.001Z,63.80
2018-07-21T15:37:22.886Z,66.10
2018-07-21T15:39:50.878Z,66.80
2018-07-21T15:42:18.763Z,67.00
2018-07-21T15:47:14.648Z,67.50
2018-07-21T15:49:42.572Z,67.70
2018-07-21T15:52:10.534Z,68.10
2018-07-21T15:57:06.372Z,69.00
2018-07-21T16:06:58.192Z,70.50
2018-07-21T16:09:26.208Z,71.20
2018-07-21T16:11:54.172Z,71.10
2018-07-21T16:16:50.052Z,70.60
2018-07-21T16:19:17.976Z,70.90
2018-07-21T16:24:13.860Z,71.30
2018-07-21T16:26:41.786Z,71.80
2018-07-21T16:34:05.693Z,71.00
2018-07-21T16:39:01.584Z,71.30
2018-07-21T16:41:29.578Z,71.40
2018-07-21T16:43:57.550Z,71.90
2018-07-21T16:46:25.504Z,71.60
2018-07-21T16:48:53.465Z,71.50
2018-07-21T16:51:21.408Z,70.10
2018-07-21T16:55:27.088Z,80.20
2018-07-21T16:57:55.012Z,70.30
2018-07-21T17:00:22.954Z,70.50
2018-07-21T17:02:50.932Z,71.30
2018-07-21T17:07:46.828Z,72.40
2018-07-21T17:10:14.762Z,73.50
2018-07-21T17:12:42.705Z,74.20
2018-07-21T17:17:38.535Z,77.10
2018-07-21T17:25:02.444Z,78.80
2018-07-21T17:29:58.494Z,79.00
2018-07-21T17:37:22.306Z,78.80
2018-07-21T17:39:50.272Z,79.30
2018-07-21T17:42:18.356Z,79.50
2018-07-21T17:44:46.369Z,80.60
2018-07-21T17:47:14.266Z,81.20
2018-07-21T17:49:42.242Z,81.70
2018-07-21T17:52:10.304Z,82.60
2018-07-21T17:54:38.234Z,83.50
2018-07-21T17:57:06.345Z,81.90
2018-07-21T17:59:34.290Z,82.20
2018-07-21T18:04:30.246Z,84.00
2018-07-21T18:06:58.225Z,85.00
2018-07-21T18:09:26.158Z,85.80
2018-07-21T18:16:50.051Z,86.20
2018-07-21T18:19:18.010Z,87.10
2018-07-21T18:21:46.012Z,87.70
2018-07-21T18:24:13.965Z,93.50
2018-07-21T18:29:09.913Z,87.40
2018-07-21T18:31:38.006Z,87.80
2018-07-21T18:41:30.480Z,88.60
2018-07-21T18:43:58.450Z,88.80
2018-07-21T18:46:26.406Z,89.40
2018-07-21T18:51:22.304Z,90.30
2018-07-21T18:53:50.311Z,90.20
2018-07-21T19:01:14.357Z,90.30
2018-07-21T19:03:42.339Z,90.50
2018-07-21T19:06:10.399Z,90.80
2018-07-21T19:08:56.678Z,90.70
2018-07-21T19:11:24.629Z,90.80
2018-07-21T19:13:52.615Z,91.10
2018-07-21T19:16:40.173Z,91.30
2018-07-21T19:19:09.376Z,91.40
2018-07-21T19:21:40.645Z,91.10
2018-07-21T19:24:08.602Z,91.10
2018-07-21T19:26:54.723Z,91.30
2018-07-21T19:29:22.693Z,91.60
2018-07-21T19:32:09.229Z,91.90
2018-07-21T19:34:37.558Z,91.60
2018-07-21T19:39:53.154Z,92.30
2018-07-21T19:42:21.060Z,97.60
2018-07-21T19:44:49.022Z,93.00
2018-07-21T19:47:17.070Z,93.10
2018-07-21T19:49:44.993Z,93.20
2018-07-21T19:52:12.928Z,93.40
2018-07-21T19:54:43.156Z,93.40
2018-07-21T19:57:11.142Z,93.70
2018-07-21T19:59:39.180Z,93.90
2018-07-21T20:02:07.153Z,99.50
2018-07-21T20:04:35.130Z,93.70
2018-07-21T20:07:03.165Z,94.20
2018-07-21T20:09:31.166Z,94.40
2018-07-21T20:11:59.120Z,94.40
2018-07-21T20:14:27.127Z,94.50
2018-07-21T20:16:55.181Z,94.70
2018-07-21T20:19:23.160Z,94.40
2018-07-21T20:21:51.133Z,94.70
2018-07-21T20:24:19.123Z,94.80
2018-07-21T20:26:47.085Z,99.80
2018-07-21T20:29:15.077Z,95.00
2018-07-21T20:34:10.964Z,94.90
2018-07-21T20:36:38.901Z,95.30
2018-07-21T20:39:10.611Z,95.20
2018-07-21T20:41:38.691Z,95.80
2018-07-21T20:44:06.761Z,99.90
2018-07-21T20:46:35.222Z,96.30
2018-07-21T20:49:03.283Z,96.30
2018-07-21T20:51:31.245Z,96.40
2018-07-21T20:53:59.235Z,99.90
2018-07-21T20:56:27.202Z,99.90
2018-07-21T20:58:55.192Z,99.90
2018-07-21T21:03:51.143Z,97.20
2018-07-21T21:06:19.137Z,99.90
2018-07-21T21:11:15.074Z,98.10
2018-07-21T21:13:43.070Z,98.40
2018-07-21T21:16:11.059Z,98.40
2018-07-21T21:18:39.052Z,98.90
2018-07-21T21:23:34.976Z,98.90
2018-07-21T21:26:02.931Z,99.20
2018-07-21T21:28:30.938Z,99.10
2018-07-21T21:30:58.886Z,99.90
2018-07-21T21:33:26.864Z,99.60
2018-07-21T21:35:54.831Z,99.90
2018-07-21T21:38:22.790Z,99.90
2018-07-21T21:40:50.804Z,99.90
2018-07-21T21:43:22.659Z,99.90
2018-07-21T21:45:50.666Z,99.90
2018-07-21T21:51:31.264Z,99.90
2018-07-21T21:54:24.321Z,99.90
2018-07-21T21:59:21.324Z,99.90
2018-07-21T22:01:49.593Z,99.90
2018-07-21T22:04:17.681Z,99.90
2018-07-21T22:06:45.600Z,99.90
2018-07-21T22:11:41.659Z,99.90
2018-07-21T22:14:09.645Z,99.90
2018-07-21T22:16:37.692Z,99.90
2018-07-21T22:19:05.785Z,99.90
2018-07-21T22:21:37.357Z,99.90
2018-07-21T22:24:10.415Z,99.90
2018-07-21T22:29:17.411Z,99.90
2018-07-21T22:31:51.407Z,99.90
2018-07-21T22:34:24.676Z,99.90
2018-07-21T22:36:55.645Z,99.90
2018-07-21T22:39:25.418Z,99.90
2018-07-21T22:41:55.875Z,99.90
2018-07-21T22:44:23.907Z,99.90
2018-07-21T22:46:51.829Z,99.90
2018-07-21T22:49:19.817Z,99.90
2018-07-21T22:51:47.773Z,99.90
2018-07-21T22:54:15.869Z,99.90
2018-07-21T22:56:43.879Z,99.90
2018-07-21T23:04:08.476Z,99.90
2018-07-21T23:06:36.507Z,99.90
2018-07-21T23:09:06.218Z,99.90
2018-07-21T23:11:34.192Z,99.90
2018-07-21T23:14:02.185Z,99.90
2018-07-21T23:16:30.161Z,99.90
2018-07-21T23:18:58.108Z,99.90
2018-07-21T23:21:26.248Z,99.90
2018-07-21T23:23:54.237Z,99.90
2018-07-21T23:26:22.193Z,99.90
2018-07-21T23:28:50.181Z,99.90
2018-07-21T23:31:18.128Z,99.90
2018-07-21T23:33:46.134Z,99.90
2018-07-21T23:36:14.101Z,99.90
2018-07-21T23:38:42.047Z,99.90
2018-07-21T23:41:10.078Z,99.90
2018-07-21T23:43:38.045Z,99.90
2018-07-21T23:46:06.028Z,99.90
2018-07-21T23:48:34.045Z,99.90
2018-07-21T23:51:02.049Z,99.90
2018-07-21T23:53:30.054Z,99.90
2018-07-21T23:55:57.991Z,99.90
2018-07-21T23:58:26.002Z,99.90
